Time;durP1;ratioP1;P1;durP2;ratioP2;P2;SDS_P1;SDS_P2;PMS_P1;PMS_P2;Temp;Humidity;BMP_temperature;BMP_pressure;BME280_temperature;BME280_humidity;BME280_pressure;Samples;Min_cycle;Max_cycle;Signal;HPM_P1;HPM_P2
2022/12/18 00:01:49;;;;;;;101.60;42.70;;;;;;;-2.18;87.88;100207.02;84994;1281;99606;-70
2022/12/18 00:03:51;;;;;;;96.00;43.30;;;;;;;-2.19;88.00;100211.98;85055;1289;22456;-69
2022/12/18 00:05:53;;;;;;;92.60;42.50;;;;;;;-2.18;87.84;100214.58;85189;1287;22470;-70
2022/12/18 00:07:55;;;;;;;87.80;40.10;;;;;;;-2.19;87.94;100220.08;85025;1286;99762;-70
2022/12/18 00:09:56;;;;;;;90.90;40.60;;;;;;;-2.19;87.87;100219.38;85137;1293;22831;-70
2022/12/18 00:11:58;;;;;;;87.00;39.40;;;;;;;-2.19;87.82;100226.44;84964;1290;22906;-70
2022/12/18 00:14:00;;;;;;;99.90;40.80;;;;;;;-2.17;87.92;100231.98;85921;1287;99811;-69
2022/12/18 00:16:05;;;;;;;98.00;41.70;;;;;;;-2.17;88.00;100227.34;86101;1287;22480;-70
2022/12/18 00:18:09;;;;;;;92.30;40.80;;;;;;;-2.17;87.92;100233.18;86338;1284;22443;-70
2022/12/18 00:20:11;;;;;;;80.20;37.20;;;;;;;-2.19;88.02;100233.86;85675;1287;99766;-70
2022/12/18 00:22:13;;;;;;;90.70;41.10;;;;;;;-2.18;87.99;100239.55;86002;1287;22550;-70
2022/12/18 00:24:14;;;;;;;71.80;34.40;;;;;;;-2.19;87.94;100246.77;85903;1283;22573;-70
2022/12/18 00:26:23;;;;;;;92.00;41.20;;;;;;;-2.19;88.00;100247.27;85075;1283;99401;-69
2022/12/18 00:28:25;;;;;;;98.60;40.80;;;;;;;-2.18;87.96;100254.35;85180;1290;22539;-70
2022/12/18 00:30:26;;;;;;;96.10;41.80;;;;;;;-2.18;87.99;100258.32;85160;1288;22423;-70
2022/12/18 00:32:28;;;;;;;83.40;37.10;;;;;;;-2.17;88.05;100258.86;85091;1288;99389;-70
2022/12/18 00:34:30;;;;;;;85.50;41.20;;;;;;;-2.16;88.08;100255.59;85109;1287;22477;-69
2022/12/18 00:36:34;;;;;;;65.10;31.10;;;;;;;-2.16;87.98;100254.23;85165;1289;23704;-69
2022/12/18 00:38:35;;;;;;;61.70;32.70;;;;;;;-2.17;87.99;100254.55;85306;1286;100427;-72
2022/12/18 00:40:38;;;;;;;53.70;29.50;;;;;;;-2.18;87.98;100256.41;85109;1294;24397;-70
2022/12/18 00:42:55;;;;;;;69.20;33.80;;;;;;;-2.20;88.03;100258.45;85219;1289;22498;-70
2022/12/18 00:44:57;;;;;;;66.30;30.50;;;;;;;-2.20;88.03;100261.02;85156;1296;99410;-69
2022/12/18 00:46:59;;;;;;;63.10;30.70;;;;;;;-2.22;88.06;100262.88;85863;1286;24446;-69
2022/12/18 00:49:01;;;;;;;62.20;29.30;;;;;;;-2.24;87.96;100267.48;85857;1290;24322;-70
2022/12/18 00:51:02;;;;;;;57.30;30.50;;;;;;;-2.26;87.99;100265.37;85416;1287;99946;-70
2022/12/18 00:53:04;;;;;;;64.50;29.20;;;;;;;-2.31;87.94;100272.98;85078;1288;22624;-69
2022/12/18 00:55:06;;;;;;;55.80;27.20;;;;;;;-2.36;87.72;100271.48;85331;1285;24986;-68
2022/12/18 00:57:08;;;;;;;61.90;28.30;;;;;;;-2.39;87.78;100277.61;85130;1290;99373;-70
2022/12/18 00:59:10;;;;;;;58.10;28.60;;;;;;;-2.44;87.68;100278.53;85134;1287;22610;-70
2022/12/18 01:01:11;;;;;;;57.50;27.10;;;;;;;-2.47;87.72;100279.98;85148;1288;22548;-70
2022/12/18 01:03:14;;;;;;;51.70;26.70;;;;;;;-2.46;87.88;100278.65;85218;1282;99695;-70
2022/12/18 01:05:15;;;;;;;51.20;26.40;;;;;;;-2.47;87.90;100282.73;85144;1290;22605;-69
2022/12/18 01:07:17;;;;;;;49.60;24.40;;;;;;;-2.52;87.82;100288.30;85247;1288;22707;-69
2022/12/18 01:09:19;;;;;;;45.90;24.80;;;;;;;-2.54;87.77;100298.23;85149;1284;99085;-69
2022/12/18 01:11:21;;;;;;;45.50;25.10;;;;;;;-2.58;87.70;100300.20;85157;1287;22560;-69
2022/12/18 01:13:23;;;;;;;54.50;26.40;;;;;;;-2.57;87.81;100306.40;85102;1287;22488;-69
2022/12/18 01:15:24;;;;;;;49.70;26.80;;;;;;;-2.58;87.78;100306.05;85048;1290;100134;-69
2022/12/18 01:17:26;;;;;;;56.90;29.00;;;;;;;-2.57;87.94;100308.98;85189;1287;22470;-69
2022/12/18 01:19:27;;;;;;;62.50;29.30;;;;;;;-2.56;87.95;100312.11;85117;1286;22464;-69
2022/12/18 01:21:29;;;;;;;57.10;29.80;;;;;;;-2.55;87.74;100312.48;85165;1287;98686;-69
2022/12/18 01:23:31;;;;;;;57.50;29.50;;;;;;;-2.54;87.83;100315.61;85266;1287;22477;-69
2022/12/18 01:25:35;;;;;;;62.90;28.00;;;;;;;-2.53;87.90;100316.65;85154;1287;22787;-70
2022/12/18 01:27:37;;;;;;;56.60;29.60;;;;;;;-2.52;87.88;100321.34;85003;1284;99676;-70
2022/12/18 01:29:38;;;;;;;61.90;30.60;;;;;;;-2.51;87.79;100322.91;85091;1291;22562;-69
2022/12/18 01:31:40;;;;;;;56.40;29.10;;;;;;;-2.50;87.87;100320.86;85296;1288;22486;-70
2022/12/18 01:33:43;;;;;;;57.60;29.50;;;;;;;-2.51;87.92;100317.75;85185;1284;99699;-69
2022/12/18 01:35:44;;;;;;;61.50;30.90;;;;;;;-2.51;87.96;100321.19;85493;1288;25342;-70
2022/12/18 01:37:46;;;;;;;70.00;31.50;;;;;;;-2.51;87.93;100324.96;85283;1289;22793;-69
2022/12/18 01:39:49;;;;;;;59.80;29.40;;;;;;;-2.52;87.91;100325.63;85009;1287;99139;-70
2022/12/18 01:42:03;;;;;;;55.70;29.20;;;;;;;-2.52;87.88;100326.15;85286;1284;22490;-71
2022/12/18 01:44:44;;;;;;;64.70;31.30;;;;;;;-2.51;87.96;100322.72;85104;1283;99557;-70
2022/12/18 01:46:45;;;;;;;68.80;32.40;;;;;;;-2.51;87.91;100323.09;85208;1283;23873;-70
2022/12/18 01:48:50;;;;;;;72.30;35.10;;;;;;;-2.50;87.92;100326.20;85199;1282;23068;-70
2022/12/18 01:50:52;;;;;;;65.40;34.10;;;;;;;-2.50;87.96;100327.93;85004;1284;99502;-68
2022/12/18 01:52:59;;;;;;;66.80;34.50;;;;;;;-2.49;88.00;100329.33;85132;1286;22684;-70
2022/12/18 01:55:04;;;;;;;67.80;33.10;;;;;;;-2.48;87.98;100329.88;85223;1288;22631;-69
2022/12/18 01:57:06;;;;;;;70.00;33.20;;;;;;;-2.46;87.95;100331.14;85686;1288;99407;-68
2022/12/18 01:59:11;;;;;;;70.70;34.50;;;;;;;-2.44;88.02;100337.20;85423;1288;26872;-69
2022/12/18 02:01:13;;;;;;;64.10;32.30;;;;;;;-2.43;88.06;100340.34;85133;1291;24349;-70
2022/12/18 02:03:15;;;;;;;71.30;35.70;;;;;;;-2.40;88.09;100343.66;85417;1283;98303;-71
2022/12/18 02:05:22;;;;;;;64.00;30.60;;;;;;;-2.38;88.02;100348.04;85009;1282;24757;-70
2022/12/18 02:07:51;;;;;;;70.30;33.00;;;;;;;-2.36;88.23;100350.67;85040;1287;25127;-69
2022/12/18 02:10:06;;;;;;;56.20;29.50;;;;;;;-2.34;88.13;100354.16;85321;1281;22627;-69
2022/12/18 02:12:24;;;;;;;52.80;28.20;;;;;;;-2.33;88.07;100355.39;85166;1287;24414;-70
2022/12/18 02:14:41;;;;;;;48.30;26.10;;;;;;;-2.34;88.15;100357.10;84925;1284;256515;-69
2022/12/18 02:16:57;;;;;;;48.60;25.50;;;;;;;-2.34;88.13;100360.69;85135;1287;25705;-69
2022/12/18 02:19:06;;;;;;;51.80;26.80;;;;;;;-2.34;88.19;100362.94;85144;1287;22608;-70
2022/12/18 02:21:35;;;;;;;55.40;31.10;;;;;;;-2.33;88.15;100368.83;85798;1288;99670;-69
2022/12/18 02:24:07;;;;;;;61.50;31.70;;;;;;;-2.33;88.15;100370.89;85019;1288;22654;-69
2022/12/18 02:26:16;;;;;;;72.80;34.70;;;;;;;-2.31;88.17;100374.05;84943;1288;100188;-68
2022/12/18 02:28:21;;;;;;;71.90;34.70;;;;;;;-2.29;88.10;100374.77;85168;1280;25317;-68
2022/12/18 02:30:23;;;;;;;67.20;30.70;;;;;;;-2.29;88.18;100378.23;85275;1283;25384;-70
2022/12/18 02:32:34;;;;;;;67.00;33.10;;;;;;;-2.27;88.07;100378.27;85383;1288;99626;-69
2022/12/18 02:34:38;;;;;;;72.90;34.20;;;;;;;-2.27;88.14;100381.21;85611;1281;23976;-71
2022/12/18 02:36:44;;;;;;;69.80;33.10;;;;;;;-2.25;88.16;100383.84;85534;1286;24256;-69
2022/12/18 02:38:47;;;;;;;64.20;32.50;;;;;;;-2.25;88.03;100386.45;85249;1287;99955;-69
2022/12/18 02:40:50;;;;;;;66.40;31.70;;;;;;;-2.23;88.12;100386.81;85091;1287;22484;-68
2022/12/18 02:42:52;;;;;;;62.10;30.40;;;;;;;-2.22;88.18;100385.81;85248;1290;22523;-68
2022/12/18 02:44:53;;;;;;;63.10;32.60;;;;;;;-2.21;88.13;100387.39;85054;1280;98748;-69
2022/12/18 02:46:55;;;;;;;65.10;32.60;;;;;;;-2.20;88.18;100389.83;85073;1284;24362;-69
2022/12/18 02:49:06;;;;;;;64.10;30.30;;;;;;;-2.18;88.20;100396.77;85049;1280;22433;-68
2022/12/18 02:51:14;;;;;;;;;;;;;;;-2.16;88.18;100400.08;85349;1281;99166;-69
2022/12/18 02:53:35;;;;;;;72.70;35.40;;;;;;;-2.17;88.12;100399.19;86094;1287;22626;-69
2022/12/18 02:55:55;;;;;;;74.80;37.20;;;;;;;-2.12;88.23;100404.48;85490;1280;25530;-69
2022/12/18 02:58:31;;;;;;;61.40;33.70;;;;;;;-2.10;88.26;100404.71;85100;1284;22481;-69
2022/12/18 03:00:47;;;;;;;71.60;33.80;;;;;;;-2.07;88.34;100414.45;85092;1287;25169;-68
2022/12/18 03:03:03;;;;;;;73.30;35.80;;;;;;;-2.06;88.23;100412.08;85086;1281;99890;-70
2022/12/18 03:05:10;;;;;;;64.70;33.90;;;;;;;-2.04;88.28;100410.90;84995;1286;25225;-69
2022/12/18 03:07:21;;;;;;;65.60;32.70;;;;;;;-2.02;88.31;100412.33;85128;1284;25287;-69
2022/12/18 03:09:39;;;;;;;60.60;30.60;;;;;;;-2.00;88.35;100410.48;84945;1287;98418;-70
2022/12/18 03:14:10;;;;;;;60.10;32.00;;;;;;;-1.99;88.32;100423.96;85078;1280;99398;-69
2022/12/18 03:16:17;;;;;;;70.60;34.20;;;;;;;-1.99;88.28;100421.19;85733;1304;22670;-69
2022/12/18 03:18:24;;;;;;;68.00;32.40;;;;;;;-2.08;88.06;100415.80;85669;1291;23256;-69
2022/12/18 03:20:31;;;;;;;75.40;35.40;;;;;;;-2.07;88.04;100421.02;85584;1282;100062;-70
2022/12/18 03:22:37;;;;;;;75.30;33.50;;;;;;;-2.09;88.11;100425.21;85080;1287;22495;-70
2022/12/18 03:24:39;;;;;;;79.20;36.40;;;;;;;-2.12;87.98;100416.73;85871;1284;24369;-69
2022/12/18 03:26:46;;;;;;;76.90;36.50;;;;;;;-2.10;88.03;100420.58;85742;1283;99521;-69
2022/12/18 03:29:00;;;;;;;67.80;32.50;;;;;;;-2.11;87.94;100424.33;85075;1287;24494;-72
2022/12/18 03:31:04;;;;;;;75.80;35.70;;;;;;;-2.12;87.84;100430.17;85238;1287;24306;-69
2022/12/18 03:33:17;;;;;;;79.70;38.10;;;;;;;-2.11;87.95;100432.93;85363;1288;99418;-70
2022/12/18 03:35:26;;;;;;;74.70;35.70;;;;;;;-2.11;88.04;100437.77;85136;1281;22472;-68
2022/12/18 03:37:31;;;;;;;84.50;36.70;;;;;;;-2.09;88.06;100448.65;85326;1286;22563;-69
2022/12/18 03:39:34;;;;;;;92.00;39.40;;;;;;;-2.10;87.96;100454.48;85190;1283;98276;-69
2022/12/18 03:41:45;;;;;;;75.10;36.40;;;;;;;-2.10;88.04;100453.80;85022;1287;23246;-69
2022/12/18 03:43:58;;;;;;;91.10;41.10;;;;;;;-2.09;87.94;100454.69;85096;1284;22524;-69
2022/12/18 03:46:07;;;;;;;77.00;35.70;;;;;;;-2.11;88.16;100449.98;85039;1288;22529;-69
2022/12/18 03:48:28;;;;;;;78.70;34.00;;;;;;;-2.09;87.93;100456.08;85237;1287;25359;-70
2022/12/18 03:50:43;;;;;;;85.90;39.00;;;;;;;-2.11;87.92;100459.30;85949;1287;99426;-70
2022/12/18 03:53:02;;;;;;;79.40;37.30;;;;;;;-2.11;87.96;100462.55;85184;1280;22459;-68
2022/12/18 03:55:07;;;;;;;85.50;40.40;;;;;;;-2.10;88.02;100463.62;84933;1289;22593;-70
2022/12/18 03:57:19;;;;;;;86.10;36.10;;;;;;;-2.11;87.97;100463.23;84970;1290;99459;-68
2022/12/18 03:59:22;;;;;;;80.00;39.40;;;;;;;-2.12;87.85;100465.81;85570;1280;24384;-68
2022/12/18 04:01:31;;;;;;;93.90;40.40;;;;;;;-2.11;87.86;100465.83;84980;1289;25358;-68
2022/12/18 04:03:35;;;;;;;82.90;37.20;;;;;;;-2.15;87.84;100467.10;84851;1283;99847;-69
2022/12/18 04:05:37;;;;;;;90.50;40.20;;;;;;;-2.14;87.78;100474.86;85262;1286;26547;-70
2022/12/18 04:07:40;;;;;;;88.00;38.90;;;;;;;-2.16;87.81;100472.23;85136;1281;22453;-69
2022/12/18 04:09:44;;;;;;;84.30;38.00;;;;;;;-2.15;87.81;100472.09;85116;1295;100075;-71
2022/12/18 04:11:47;;;;;;;87.20;40.40;;;;;;;-2.15;87.84;100476.05;85243;1288;22552;-69
2022/12/18 04:13:49;;;;;;;95.70;41.70;;;;;;;-2.16;87.75;100478.07;85308;1296;25307;-69
2022/12/18 04:15:51;;;;;;;92.60;40.20;;;;;;;-2.18;87.81;100482.67;85249;1312;100891;-69
2022/12/18 04:17:52;;;;;;;80.50;39.00;;;;;;;-2.20;87.76;100486.41;85413;1287;25385;-70
2022/12/18 04:19:54;;;;;;;86.50;38.20;;;;;;;-2.23;87.69;100485.32;86341;1310;23352;-69
2022/12/18 04:21:55;;;;;;;87.50;39.30;;;;;;;-2.24;87.71;100482.02;85621;1310;99428;-69
2022/12/18 04:23:57;;;;;;;75.90;37.80;;;;;;;-2.23;87.81;100485.82;86005;1287;25285;-69
2022/12/18 04:25:59;;;;;;;97.00;39.60;;;;;;;-2.23;87.68;100485.66;86034;1294;99540;-69
2022/12/18 04:28:00;;;;;;;82.70;37.20;;;;;;;-2.25;87.78;100486.29;85956;1304;24349;-69
2022/12/18 04:30:03;;;;;;;92.30;39.20;;;;;;;-2.25;87.76;100488.52;85882;1288;22543;-68
2022/12/18 04:32:08;;;;;;;84.30;40.50;;;;;;;-2.27;87.61;100487.77;85669;1312;99568;-69
2022/12/18 04:34:10;;;;;;;87.00;41.00;;;;;;;-2.28;87.66;100491.02;85663;1297;22474;-69
2022/12/18 04:36:12;;;;;;;82.60;37.10;;;;;;;-2.30;87.76;100493.04;85592;1297;22552;-69
2022/12/18 04:38:14;;;;;;;84.10;38.60;;;;;;;-2.31;87.73;100497.13;85807;1288;99027;-69
2022/12/18 04:40:16;;;;;;;90.10;39.50;;;;;;;-2.33;87.57;100506.20;85806;1287;22473;-69
2022/12/18 04:42:18;;;;;;;94.30;42.00;;;;;;;-2.32;87.68;100513.44;85915;1284;22519;-69
2022/12/18 04:44:19;;;;;;;86.10;39.10;;;;;;;-2.32;87.67;100514.82;85848;1289;99203;-70
2022/12/18 04:46:21;;;;;;;96.00;41.50;;;;;;;-2.32;87.71;100514.30;85740;1289;22635;-68
2022/12/18 04:48:23;;;;;;;93.50;40.50;;;;;;;-2.33;87.61;100515.14;85931;1297;22971;-68
2022/12/18 04:50:24;;;;;;;88.10;40.00;;;;;;;-2.35;87.64;100514.23;85827;1294;98757;-68
2022/12/18 04:52:26;;;;;;;89.00;40.70;;;;;;;-2.34;87.68;100514.27;85940;1286;25418;-71
2022/12/18 04:54:28;;;;;;;86.10;40.50;;;;;;;-2.33;87.56;100516.01;85815;1294;25850;-69
2022/12/18 04:56:31;;;;;;;102.50;44.20;;;;;;;-2.32;87.72;100521.89;85514;1289;99645;-68
2022/12/18 04:58:33;;;;;;;81.40;40.60;;;;;;;-2.31;87.73;100526.22;86305;1288;22523;-69
2022/12/18 05:00:35;;;;;;;91.00;41.40;;;;;;;-2.31;87.75;100533.63;85692;1288;22507;-69
2022/12/18 05:02:37;;;;;;;89.30;41.30;;;;;;;-2.32;87.68;100531.89;85612;1290;99475;-69
2022/12/18 05:04:38;;;;;;;84.70;41.10;;;;;;;-2.33;87.81;100532.02;85614;1310;22546;-69
2022/12/18 05:06:40;;;;;;;91.70;41.10;;;;;;;-2.32;87.71;100532.73;85468;1290;22481;-69
2022/12/18 05:08:42;;;;;;;94.10;41.50;;;;;;;-2.30;87.71;100539.18;85378;1309;99757;-68
2022/12/18 05:10:43;;;;;;;89.10;41.80;;;;;;;-2.30;87.73;100531.59;85504;1291;22525;-70
2022/12/18 05:13:01;;;;;;;107.40;43.30;;;;;;;-2.28;87.77;100538.54;85423;1283;22723;-68
2022/12/18 05:15:03;;;;;;;90.20;41.10;;;;;;;-2.28;87.76;100541.63;85505;1294;99986;-70
2022/12/18 05:17:04;;;;;;;92.30;42.30;;;;;;;-2.31;87.72;100542.05;85491;1287;23087;-68
2022/12/18 05:19:06;;;;;;;82.50;38.70;;;;;;;-2.31;87.75;100542.92;85411;1287;24954;-69
2022/12/18 05:21:08;;;;;;;97.40;43.40;;;;;;;-2.29;87.75;100551.92;85921;1281;99748;-69
2022/12/18 05:23:10;;;;;;;90.10;39.50;;;;;;;-2.29;87.70;100553.14;85411;1288;22497;-69
2022/12/18 05:25:12;;;;;;;94.10;45.00;;;;;;;-2.28;87.70;100555.92;85228;1288;22604;-69
2022/12/18 05:27:13;;;;;;;92.70;41.00;;;;;;;-2.26;87.78;100552.20;85803;1289;99369;-70
2022/12/18 05:29:15;;;;;;;89.80;41.90;;;;;;;-2.26;87.83;100549.64;85965;1288;22625;-70
2022/12/18 05:31:17;;;;;;;96.90;44.90;;;;;;;-2.25;87.78;100553.95;86010;1280;24440;-70
2022/12/18 05:33:20;;;;;;;90.00;40.20;;;;;;;-2.24;87.77;100550.02;85457;1285;99625;-68
2022/12/18 05:35:22;;;;;;;91.20;39.30;;;;;;;-2.24;87.79;100556.22;85278;1286;24373;-70
2022/12/18 05:37:23;;;;;;;88.50;40.10;;;;;;;-2.24;87.68;100552.96;85276;1282;22456;-70
2022/12/18 05:39:25;;;;;;;88.30;40.50;;;;;;;-2.30;87.68;100544.68;85199;1284;98269;-68
2022/12/18 05:41:27;;;;;;;86.20;38.00;;;;;;;-2.23;87.76;100558.14;85256;1285;22483;-70
2022/12/18 05:43:29;;;;;;;82.70;36.90;;;;;;;-2.23;87.88;100564.86;85920;1287;25348;-70
2022/12/18 05:45:30;;;;;;;87.10;41.10;;;;;;;-2.24;87.75;100564.81;85868;1286;99398;-70
2022/12/18 05:47:32;;;;;;;86.40;41.90;;;;;;;-2.25;87.80;100565.65;85942;1287;22513;-70
2022/12/18 05:49:34;;;;;;;84.10;40.20;;;;;;;-2.26;87.78;100563.91;85988;1280;26754;-70
2022/12/18 05:51:35;;;;;;;81.80;40.30;;;;;;;-2.28;87.53;100567.98;85756;1288;98275;-70
2022/12/18 05:53:37;;;;;;;80.80;37.90;;;;;;;-2.31;87.69;100572.52;85963;1279;22472;-69
2022/12/18 05:55:40;;;;;;;89.70;40.00;;;;;;;-2.30;87.56;100578.24;85205;1288;22503;-69
2022/12/18 05:57:42;;;;;;;89.90;42.30;;;;;;;-2.31;87.69;100578.58;85085;1287;99915;-69
2022/12/18 05:59:43;;;;;;;85.60;39.80;;;;;;;-2.29;87.67;100580.87;85152;1286;26672;-69
2022/12/18 06:01:46;;;;;;;83.20;39.50;;;;;;;-2.28;87.54;100582.77;85902;1289;22579;-69
2022/12/18 06:03:49;;;;;;;92.00;41.60;;;;;;;-2.30;87.73;100584.45;85764;1283;99670;-69
2022/12/18 06:05:50;;;;;;;87.40;41.10;;;;;;;-2.31;87.73;100588.40;85874;1283;24010;-68
2022/12/18 06:07:52;;;;;;;89.20;38.70;;;;;;;-2.30;87.76;100594.10;85194;1286;22773;-68
2022/12/18 06:09:54;;;;;;;107.00;41.90;;;;;;;-2.28;87.72;100594.81;85843;1280;99472;-68
2022/12/18 06:11:56;;;;;;;86.00;37.90;;;;;;;-2.28;87.74;100598.63;85062;1287;22523;-69
2022/12/18 06:13:57;;;;;;;79.50;38.50;;;;;;;-2.27;87.72;100599.34;85061;1287;99985;-70
2022/12/18 06:16:02;;;;;;;88.90;41.20;;;;;;;-2.28;87.69;100602.95;85127;1288;22687;-69
2022/12/18 06:18:04;;;;;;;76.20;37.20;;;;;;;-2.26;87.63;100606.77;85206;1280;24325;-70
2022/12/18 06:20:06;;;;;;;84.70;38.30;;;;;;;-2.26;87.67;100609.52;85029;1281;99933;-71
2022/12/18 06:22:08;;;;;;;83.70;37.80;;;;;;;-2.26;87.77;100610.56;85107;1287;22499;-70
2022/12/18 06:24:10;;;;;;;85.40;39.50;;;;;;;-2.26;87.70;100614.88;85105;1280;24320;-69
2022/12/18 06:26:12;;;;;;;83.10;38.60;;;;;;;-2.27;87.57;100615.52;84970;1287;100227;-69
2022/12/18 06:28:14;;;;;;;82.50;38.50;;;;;;;-2.30;87.71;100611.47;85980;1287;22531;-69
2022/12/18 06:30:16;;;;;;;87.60;40.40;;;;;;;-2.32;87.62;100613.63;85223;1281;22508;-69
2022/12/18 06:32:18;;;;;;;88.30;41.20;;;;;;;-2.32;87.68;100614.68;84855;1281;99389;-70
2022/12/18 06:34:20;;;;;;;90.20;41.00;;;;;;;-2.31;87.73;100620.54;85035;1287;22604;-68
2022/12/18 06:36:21;;;;;;;96.50;42.30;;;;;;;-2.31;87.72;100623.16;85089;1288;22946;-69
2022/12/18 06:38:23;;;;;;;89.80;39.70;;;;;;;-2.31;87.63;100623.67;84902;1280;99621;-68
2022/12/18 06:40:24;;;;;;;85.40;39.90;;;;;;;-2.34;87.54;100629.27;84918;1287;24401;-68
2022/12/18 06:42:26;;;;;;;91.70;41.10;;;;;;;-2.35;87.67;100631.11;85041;1286;22490;-69
2022/12/18 06:44:28;;;;;;;91.00;42.00;;;;;;;-2.35;87.59;100633.70;84903;1280;99635;-69
2022/12/18 06:46:29;;;;;;;93.60;44.70;;;;;;;-2.35;87.54;100633.20;85045;1281;25210;-68
2022/12/18 06:48:32;;;;;;;90.00;40.30;;;;;;;-2.34;87.66;100641.48;85120;1285;22485;-67
2022/12/18 06:50:34;;;;;;;93.40;41.60;;;;;;;-2.33;87.66;100641.86;84943;1280;99448;-68
2022/12/18 06:52:36;;;;;;;95.70;40.50;;;;;;;-2.31;87.67;100641.21;85024;1282;22713;-68
2022/12/18 06:54:38;;;;;;;83.40;39.10;;;;;;;-2.30;87.62;100640.56;85003;1281;24244;-69
2022/12/18 06:56:39;;;;;;;93.00;41.40;;;;;;;-2.29;87.64;100644.20;84952;1288;99619;-69
2022/12/18 06:58:41;;;;;;;79.30;36.80;;;;;;;-2.29;87.70;100653.52;85113;1287;22598;-69
2022/12/18 07:00:43;;;;;;;86.30;39.30;;;;;;;-2.30;87.73;100658.98;85164;1288;24792;-68
2022/12/18 07:02:44;;;;;;;92.00;40.40;;;;;;;-2.35;87.72;100653.84;85970;1280;99598;-69
2022/12/18 07:04:50;;;;;;;94.20;41.60;;;;;;;-2.33;87.77;100665.09;85592;1287;25359;-69
2022/12/18 07:06:52;;;;;;;83.30;39.70;;;;;;;-2.32;87.70;100667.89;85372;1283;22693;-68
2022/12/18 07:08:54;;;;;;;81.60;38.80;;;;;;;-2.29;87.80;100669.17;85108;1287;99409;-69
2022/12/18 07:10:55;;;;;;;100.10;39.60;;;;;;;-2.27;87.87;100672.85;85161;1293;24170;-69
2022/12/18 07:12:58;;;;;;;86.20;38.00;;;;;;;-2.25;87.84;100675.33;85194;1282;22537;-69
2022/12/18 07:15:00;;;;;;;96.20;42.10;;;;;;;-2.22;87.88;100675.26;85137;1288;99562;-69
2022/12/18 07:17:02;;;;;;;98.80;42.70;;;;;;;-2.20;87.86;100678.92;85172;1286;25373;-69
2022/12/18 07:19:03;;;;;;;94.40;44.70;;;;;;;-2.18;87.73;100677.59;84995;1282;23067;-69
2022/12/18 07:21:07;;;;;;;91.00;38.00;;;;;;;-2.16;87.98;100682.48;84874;1280;99584;-69
2022/12/18 07:23:09;;;;;;;82.50;39.50;;;;;;;-2.13;87.91;100685.51;85228;1280;22836;-68
2022/12/18 07:25:11;;;;;;;85.30;38.00;;;;;;;-2.11;87.95;100692.63;84945;1280;24803;-69
2022/12/18 07:27:12;;;;;;;86.70;39.60;;;;;;;-2.11;87.91;100690.21;84909;1288;99739;-69
2022/12/18 07:29:14;;;;;;;85.70;39.90;;;;;;;-2.11;87.98;100693.50;84964;1288;22594;-68
2022/12/18 07:31:19;;;;;;;83.00;39.20;;;;;;;-2.10;87.96;100695.44;84860;1284;25240;-69
2022/12/18 07:33:20;;;;;;;92.10;39.80;;;;;;;-2.07;87.88;100703.42;85000;1287;99767;-71
2022/12/18 07:35:22;;;;;;;95.60;42.10;;;;;;;-2.06;88.07;100709.32;84926;1281;24651;-69
2022/12/18 07:37:24;;;;;;;92.20;43.70;;;;;;;-2.04;87.90;100719.02;85037;1280;22615;-69
2022/12/18 07:39:25;;;;;;;90.40;42.40;;;;;;;-2.03;88.00;100720.61;84963;1281;99744;-69
2022/12/18 07:41:27;;;;;;;106.30;46.30;;;;;;;-2.02;87.84;100725.46;85205;1281;22683;-68
2022/12/18 07:43:29;;;;;;;95.60;43.20;;;;;;;-2.00;87.96;100729.98;85099;1288;24076;-68
2022/12/18 07:45:30;;;;;;;89.90;40.90;;;;;;;-1.99;88.06;100727.98;85002;1278;99414;-68
2022/12/18 07:47:34;;;;;;;89.00;41.80;;;;;;;-1.99;87.95;100721.41;85182;1288;24955;-68
2022/12/18 07:49:36;;;;;;;99.20;38.70;;;;;;;-1.96;88.04;100726.84;85913;1284;25858;-68
2022/12/18 07:51:38;;;;;;;95.20;42.10;;;;;;;-1.97;87.98;100726.98;85064;1285;99578;-68
2022/12/18 07:53:41;;;;;;;91.20;41.30;;;;;;;-1.96;88.05;100727.02;85263;1288;22487;-68
2022/12/18 07:55:43;;;;;;;81.80;39.60;;;;;;;-1.93;88.02;100733.16;85026;1283;26592;-69
2022/12/18 07:57:45;;;;;;;102.30;44.10;;;;;;;-1.91;88.09;100731.48;84973;1280;100219;-68
2022/12/18 07:59:46;;;;;;;75.90;37.00;;;;;;;-1.90;87.95;100733.26;85194;1280;22497;-69
2022/12/18 08:01:48;;;;;;;88.90;42.00;;;;;;;-1.89;88.09;100732.40;85064;1281;22614;-70
2022/12/18 08:03:50;;;;;;;100.90;46.10;;;;;;;-1.86;88.07;100738.67;84893;1284;100546;-69
2022/12/18 08:05:51;;;;;;;105.90;46.80;;;;;;;-1.86;88.06;100738.00;85007;1280;23097;-68
2022/12/18 08:07:54;;;;;;;95.40;43.20;;;;;;;-1.86;88.06;100734.38;84829;1284;22495;-69
2022/12/18 08:09:55;;;;;;;94.50;43.90;;;;;;;-1.84;88.08;100734.63;84802;1284;99412;-69
2022/12/18 08:11:57;;;;;;;86.90;40.00;;;;;;;-1.82;88.10;100732.77;84893;1280;25415;-69
2022/12/18 08:13:59;;;;;;;93.40;41.30;;;;;;;-1.80;88.03;100737.16;85008;1280;99587;-68
2022/12/18 08:16:06;;;;;;;85.00;39.30;;;;;;;-1.79;88.11;100735.80;85043;1281;24294;-68
2022/12/18 08:18:16;;;;;;;98.20;45.50;;;;;;;-1.81;88.14;100738.86;87585;1287;22554;-69
2022/12/18 08:20:21;;;;;;;92.20;41.10;;;;;;;-1.76;88.13;100740.20;86410;1283;99465;-69
2022/12/18 08:22:28;;;;;;;98.00;40.00;;;;;;;-1.75;88.10;100744.22;87144;1287;22900;-69
2022/12/18 08:24:32;;;;;;;94.80;44.50;;;;;;;-1.74;88.06;100743.70;86771;1286;22556;-69
2022/12/18 08:26:39;;;;;;;100.00;44.60;;;;;;;-1.71;88.14;100749.48;86906;1290;99573;-69
2022/12/18 08:28:43;;;;;;;92.20;41.50;;;;;;;-1.70;88.19;100755.90;86711;1290;22497;-68
2022/12/18 08:30:46;;;;;;;74.70;37.10;;;;;;;-1.75;88.01;100744.37;87092;1288;25281;-69
2022/12/18 08:32:58;;;;;;;111.70;46.30;;;;;;;-1.86;88.06;100721.30;86983;1284;99669;-69
2022/12/18 08:35:03;;;;;;;90.30;40.70;;;;;;;-1.66;88.15;100752.58;86745;1288;22438;-70
2022/12/18 08:37:08;;;;;;;90.80;43.40;;;;;;;-1.65;88.02;100755.69;86811;1291;22555;-69
2022/12/18 08:39:18;;;;;;;103.80;47.80;;;;;;;-1.65;88.11;100755.19;86753;1284;98469;-69
2022/12/18 08:41:26;;;;;;;102.70;44.00;;;;;;;-1.63;88.02;100752.51;87066;1290;22484;-69
2022/12/18 08:45:57;;;;;;;93.90;40.00;;;;;;;-1.64;88.04;100762.79;87055;1290;99582;-69
2022/12/18 08:48:01;;;;;;;93.10;42.10;;;;;;;-1.67;88.02;100759.45;87087;1288;22512;-69
2022/12/18 08:50:05;;;;;;;94.20;43.80;;;;;;;-1.67;87.92;100757.20;86433;1297;99709;-70
2022/12/18 08:52:14;;;;;;;96.40;43.50;;;;;;;-1.64;87.92;100770.56;87057;1288;22483;-70
2022/12/18 08:54:17;;;;;;;107.20;44.20;;;;;;;-1.64;87.87;100772.61;86905;1290;22638;-69
2022/12/18 08:56:27;;;;;;;93.30;42.80;;;;;;;-1.65;87.88;100778.81;86711;1283;100722;-69
2022/12/18 08:58:42;;;;;;;91.80;42.30;;;;;;;-1.65;87.86;100779.84;86429;1285;22580;-69
2022/12/18 09:00:44;;;;;;;95.00;44.30;;;;;;;-1.64;87.97;100779.86;86446;1291;22482;-68
2022/12/18 09:02:54;;;;;;;101.40;43.90;;;;;;;-1.63;87.88;100779.36;86478;1283;101052;-69
2022/12/18 09:04:57;;;;;;;100.10;45.10;;;;;;;-1.64;87.86;100778.65;86849;1289;22990;-68
2022/12/18 09:07:04;;;;;;;91.50;46.00;;;;;;;-1.61;87.98;100782.54;86320;1288;25915;-69
2022/12/18 09:09:07;;;;;;;90.80;42.10;;;;;;;-1.67;88.01;100774.27;86284;1286;100460;-68
2022/12/18 09:11:27;;;;;;;102.10;48.80;;;;;;;-1.59;88.00;100788.64;86621;1290;22706;-69
2022/12/18 09:13:30;;;;;;;94.70;45.70;;;;;;;-1.57;88.04;100789.90;86559;1289;22458;-68
2022/12/18 09:15:32;;;;;;;100.50;46.30;;;;;;;-1.56;88.06;100786.48;86531;1281;100388;-68
2022/12/18 09:17:37;;;;;;;93.10;41.10;;;;;;;-1.55;88.09;100783.94;86481;1290;22487;-69
2022/12/18 09:19:43;;;;;;;85.10;42.60;;;;;;;-1.55;88.07;100784.80;86697;1291;22508;-68
2022/12/18 09:21:45;;;;;;;86.60;40.60;;;;;;;-1.53;88.05;100790.70;86202;1288;100631;-67
2022/12/18 09:23:51;;;;;;;101.50;46.20;;;;;;;-1.52;88.03;100793.66;86328;1283;22644;-69
2022/12/18 09:26:00;;;;;;;86.50;40.60;;;;;;;-1.52;88.10;100788.98;86411;1284;25667;-69
2022/12/18 09:28:11;;;;;;;104.00;46.00;;;;;;;-1.50;88.05;100788.21;86179;1298;99195;-68
2022/12/18 09:30:16;;;;;;;108.70;48.20;;;;;;;-1.48;88.05;100786.53;86653;1287;22485;-69
2022/12/18 09:32:21;;;;;;;107.30;48.70;;;;;;;-1.48;87.97;100788.27;86406;1280;100026;-69